createdAt,value
2022-12-27T00:00:24.221Z,8.23
2022-12-27T00:02:56.716Z,8.26
2022-12-27T00:05:30.894Z,8.25
2022-12-27T00:08:03.525Z,8.24
2022-12-27T00:10:36.903Z,8.26
2022-12-27T00:13:10.172Z,8.30
2022-12-27T00:15:43.253Z,8.31
2022-12-27T00:18:17.167Z,8.23
2022-12-27T00:20:49.746Z,8.27
2022-12-27T00:23:22.264Z,8.17
2022-12-27T00:26:01.150Z,8.20
2022-12-27T00:28:35.973Z,8.25
2022-12-27T00:31:09.227Z,8.25
2022-12-27T00:33:42.914Z,8.25
2022-12-27T00:36:18.771Z,8.28
2022-12-27T00:38:55.923Z,8.25
2022-12-27T00:41:28.774Z,8.25
2022-12-27T00:44:01.262Z,8.27
2022-12-27T00:46:33.834Z,8.30
2022-12-27T00:49:07.323Z,8.33
2022-12-27T00:51:40.365Z,8.32
2022-12-27T00:54:13.442Z,8.36
2022-12-27T00:56:46.023Z,8.37
2022-12-27T00:59:18.538Z,8.31
2022-12-27T01:01:51.725Z,8.31
2022-12-27T01:04:24.245Z,8.34
2022-12-27T01:06:56.604Z,8.35
2022-12-27T01:09:29.538Z,8.34
2022-12-27T01:12:02.015Z,8.32
2022-12-27T01:14:37.653Z,8.21
2022-12-27T01:17:12.168Z,8.17
2022-12-27T01:19:45.152Z,8.16
2022-12-27T01:22:18.247Z,8.20
2022-12-27T01:24:50.839Z,8.18
2022-12-27T01:27:24.255Z,8.19
2022-12-27T01:29:56.804Z,8.16
2022-12-27T01:32:29.663Z,8.13
2022-12-27T01:35:05.965Z,8.11
2022-12-27T01:37:38.562Z,8.14
2022-12-27T01:40:13.708Z,8.14
2022-12-27T01:42:56.154Z,8.12
2022-12-27T01:45:30.480Z,8.08
2022-12-27T01:48:07.426Z,8.10
2022-12-27T01:50:43.288Z,8.11
2022-12-27T01:53:19.331Z,8.09
2022-12-27T01:55:55.280Z,8.08
2022-12-27T01:58:32.824Z,8.15
2022-12-27T02:01:37.571Z,8.14
2022-12-27T02:04:14.079Z,8.16
2022-12-27T02:06:47.580Z,8.22
2022-12-27T02:09:24.399Z,8.24
2022-12-27T02:12:00.101Z,8.22
2022-12-27T02:14:36.332Z,8.27
2022-12-27T02:17:13.094Z,8.25
2022-12-27T02:19:54.944Z,8.27
2022-12-27T02:23:19.831Z,8.23
2022-12-27T02:26:14.933Z,8.16
2022-12-27T02:29:02.122Z,8.13
2022-12-27T02:31:41.622Z,8.20
2022-12-27T02:34:20.279Z,8.24
2022-12-27T02:36:57.120Z,8.19
2022-12-27T02:39:32.672Z,8.13
2022-12-27T02:42:24.952Z,8.12
2022-12-27T02:45:14.146Z,8.08
2022-12-27T02:48:06.130Z,8.08
2022-12-27T02:51:15.672Z,8.05
2022-12-27T02:54:02.281Z,8.02
2022-12-27T02:57:00.643Z,8.03
2022-12-27T03:00:04.123Z,7.95
2022-12-27T03:03:04.179Z,7.91
2022-12-27T03:06:11.323Z,7.86
2022-12-27T03:08:51.992Z,7.89
2022-12-27T03:11:44.392Z,7.87
2022-12-27T03:14:39.512Z,7.87
2022-12-27T03:17:18.972Z,7.77
2022-12-27T03:20:13.317Z,7.77
2022-12-27T03:23:05.834Z,7.77
2022-12-27T03:25:40.282Z,7.74
2022-12-27T03:28:35.444Z,7.74
2022-12-27T03:31:29.929Z,7.68
2022-12-27T03:34:22.682Z,7.61
2022-12-27T03:37:15.105Z,7.58
2022-12-27T03:39:54.172Z,7.59
2022-12-27T03:42:50.556Z,7.55
2022-12-27T03:45:44.161Z,7.49
2022-12-27T03:48:22.260Z,7.53
2022-12-27T03:51:05.362Z,7.54
2022-12-27T03:53:41.548Z,7.53
2022-12-27T03:56:15.251Z,7.54
2022-12-27T03:58:45.779Z,7.55
2022-12-27T04:01:19.224Z,7.48
2022-12-27T04:03:49.911Z,7.47
2022-12-27T04:06:22.682Z,7.40
2022-12-27T04:09:12.259Z,7.41
2022-12-27T04:12:01.932Z,7.39
2022-12-27T04:14:51.271Z,7.33
2022-12-27T04:17:41.144Z,7.34
2022-12-27T04:20:31.713Z,7.33
2022-12-27T04:23:21.777Z,7.35
2022-12-27T04:26:11.311Z,7.37
2022-12-27T04:29:03.295Z,7.36
2022-12-27T04:31:53.276Z,7.36
2022-12-27T04:34:44.817Z,7.35
2022-12-27T04:37:19.532Z,7.32
2022-12-27T04:40:12.523Z,7.30
2022-12-27T04:43:14.518Z,7.21
2022-12-27T04:46:04.497Z,7.16
2022-12-27T04:48:53.411Z,7.11
2022-12-27T04:51:43.013Z,7.06
2022-12-27T04:54:37.048Z,7.03
2022-12-27T04:57:10.367Z,6.97
2022-12-27T05:00:00.344Z,6.92
2022-12-27T05:02:35.072Z,6.95
2022-12-27T05:05:09.325Z,6.93
2022-12-27T05:07:59.646Z,6.94
2022-12-27T05:10:49.231Z,6.99
2022-12-27T05:13:38.915Z,6.88
2022-12-27T05:16:11.800Z,6.81
2022-12-27T05:18:44.370Z,6.84
2022-12-27T05:21:17.342Z,6.87
2022-12-27T05:24:11.065Z,6.82
2022-12-27T05:26:44.011Z,6.73
2022-12-27T05:29:16.799Z,6.68
2022-12-27T05:31:49.206Z,6.62
2022-12-27T05:34:21.983Z,6.63
2022-12-27T05:36:54.503Z,6.69
2022-12-27T05:39:27.250Z,6.71
2022-12-27T05:41:59.811Z,6.59
2022-12-27T05:44:40.155Z,6.55
2022-12-27T05:47:27.391Z,6.49
2022-12-27T05:50:13.489Z,6.41
2022-12-27T05:52:47.863Z,6.14
2022-12-27T05:55:20.911Z,5.88
2022-12-27T05:57:53.688Z,5.67
2022-12-27T06:00:26.410Z,5.49
2022-12-27T06:02:58.995Z,5.44
2022-12-27T06:05:31.620Z,5.40
2022-12-27T06:08:04.012Z,5.21
2022-12-27T06:10:36.792Z,5.06
2022-12-27T06:13:09.570Z,4.95
2022-12-27T06:15:42.161Z,4.92
2022-12-27T06:18:16.081Z,4.96
2022-12-27T06:20:48.744Z,4.98
2022-12-27T06:23:21.629Z,4.96
2022-12-27T06:25:54.660Z,4.96
2022-12-27T06:28:27.094Z,4.92
2022-12-27T06:31:02.085Z,4.85
2022-12-27T06:33:40.198Z,4.82
2022-12-27T06:36:17.176Z,4.77
2022-12-27T06:38:50.458Z,4.74
2022-12-27T06:41:23.283Z,4.77
2022-12-27T06:43:58.798Z,4.77
2022-12-27T06:46:31.408Z,4.75
2022-12-27T06:49:06.592Z,4.76
2022-12-27T06:51:39.023Z,4.75
2022-12-27T06:54:12.349Z,4.67
2022-12-27T06:56:45.215Z,4.66
2022-12-27T06:59:18.161Z,4.56
2022-12-27T07:01:52.344Z,4.51
2022-12-27T07:04:25.753Z,4.56
2022-12-27T07:06:58.223Z,4.54
2022-12-27T07:09:30.853Z,4.53
2022-12-27T07:12:03.883Z,4.54
2022-12-27T07:14:36.628Z,4.53
2022-12-27T07:17:09.332Z,4.56
2022-12-27T07:19:54.290Z,4.52
2022-12-27T07:22:28.911Z,4.53
2022-12-27T07:25:01.954Z,4.51
2022-12-27T07:27:36.542Z,4.54
2022-12-27T07:30:14.112Z,4.60
2022-12-27T07:32:46.583Z,4.63
2022-12-27T07:35:19.363Z,4.62
2022-12-27T07:37:51.852Z,4.51
2022-12-27T07:40:24.722Z,4.52
2022-12-27T07:42:57.234Z,4.51
2022-12-27T07:45:29.925Z,4.46
2022-12-27T07:48:02.769Z,4.46
2022-12-27T07:50:35.399Z,4.39
2022-12-27T07:53:07.922Z,4.48
2022-12-27T07:55:43.423Z,4.53
2022-12-27T07:58:16.062Z,4.51
2022-12-27T08:00:51.999Z,4.52
2022-12-27T08:03:24.603Z,4.49
2022-12-27T08:05:59.631Z,4.43
2022-12-27T08:08:41.572Z,4.37
2022-12-27T08:11:14.400Z,4.41
2022-12-27T08:13:46.964Z,4.39
2022-12-27T08:16:23.221Z,4.37
2022-12-27T08:18:56.483Z,4.32
2022-12-27T08:21:28.992Z,4.51
2022-12-27T08:24:01.766Z,4.71
2022-12-27T08:26:34.241Z,4.84
2022-12-27T08:29:08.724Z,5.11
2022-12-27T08:31:41.411Z,5.21
2022-12-27T08:34:15.643Z,5.32
2022-12-27T08:36:56.412Z,5.36
2022-12-27T08:39:31.677Z,5.47
2022-12-27T08:42:04.691Z,5.49
2022-12-27T08:44:40.958Z,5.53
2022-12-27T08:47:13.681Z,5.63
2022-12-27T08:49:46.566Z,5.65
2022-12-27T08:52:19.191Z,5.63
2022-12-27T08:54:51.863Z,5.58
2022-12-27T08:57:24.385Z,5.75
2022-12-27T08:59:57.067Z,5.80
2022-12-27T09:02:32.546Z,5.80
2022-12-27T09:05:05.334Z,5.72
2022-12-27T09:07:41.143Z,5.53
2022-12-27T09:10:14.256Z,5.55
2022-12-27T09:12:47.685Z,5.44
2022-12-27T09:15:20.976Z,5.41
2022-12-27T09:17:54.253Z,5.32
2022-12-27T09:20:27.571Z,5.13
2022-12-27T09:23:02.075Z,5.00
2022-12-27T09:25:35.004Z,5.07
2022-12-27T09:28:08.395Z,5.07
2022-12-27T09:30:41.121Z,5.23
2022-12-27T09:33:13.829Z,5.38
2022-12-27T09:35:46.424Z,5.52
2022-12-27T09:38:18.934Z,5.69
2022-12-27T09:40:59.629Z,5.67
2022-12-27T09:43:42.554Z,5.61
2022-12-27T09:46:28.185Z,5.46
2022-12-27T09:49:01.662Z,5.42
2022-12-27T09:51:34.854Z,5.34
2022-12-27T09:54:14.763Z,5.24
2022-12-27T09:57:18.288Z,5.31
2022-12-27T09:59:46.912Z,5.38
2022-12-27T10:02:25.277Z,5.25
2022-12-27T10:08:04.505Z,5.07
2022-12-27T10:10:45.273Z,4.96
2022-12-27T10:13:29.589Z,4.94
2022-12-27T10:16:15.397Z,5.14
2022-12-27T10:19:02.345Z,5.17
2022-12-27T10:21:39.720Z,5.04
2022-12-27T10:24:21.585Z,5.10
2022-12-27T10:26:57.359Z,5.09
2022-12-27T10:29:30.584Z,5.01
2022-12-27T10:32:03.197Z,5.05
2022-12-27T10:34:36.692Z,4.97
2022-12-27T10:37:10.643Z,4.93
2022-12-27T10:39:43.562Z,4.95
2022-12-27T10:42:37.581Z,5.01
2022-12-27T10:45:32.685Z,5.05
2022-12-27T10:48:17.453Z,5.02
2022-12-27T10:50:57.933Z,5.16
2022-12-27T10:53:56.459Z,5.32
2022-12-27T10:56:37.692Z,5.36
2022-12-27T10:59:15.983Z,5.46
2022-12-27T11:01:51.682Z,5.54
2022-12-27T11:04:25.901Z,5.61
2022-12-27T11:07:15.533Z,5.64
2022-12-27T11:09:51.291Z,5.58
2022-12-27T11:12:26.199Z,5.68
2022-12-27T11:15:01.076Z,5.69
2022-12-27T11:17:40.183Z,5.73
2022-12-27T11:20:26.153Z,5.69
2022-12-27T11:23:01.029Z,5.55
2022-12-27T11:25:35.367Z,5.44
2022-12-27T11:28:22.371Z,5.31
2022-12-27T11:31:01.140Z,5.26
2022-12-27T11:33:37.894Z,5.32
2022-12-27T11:36:13.700Z,5.37
2022-12-27T11:38:51.493Z,5.39
2022-12-27T11:41:31.258Z,5.40
2022-12-27T11:44:11.356Z,5.38
2022-12-27T11:46:57.085Z,5.33
2022-12-27T11:49:37.594Z,5.31
2022-12-27T11:52:41.000Z,5.34
2022-12-27T11:55:58.567Z,5.37
2022-12-27T11:58:48.603Z,5.42
2022-12-27T12:01:41.476Z,5.49
2022-12-27T12:04:49.253Z,5.57
2022-12-27T12:07:40.352Z,5.54
2022-12-27T12:10:30.122Z,5.56
2022-12-27T12:13:36.845Z,5.58
2022-12-27T12:16:42.305Z,5.47
2022-12-27T12:19:32.554Z,5.53
2022-12-27T12:22:20.482Z,5.61
2022-12-27T12:25:31.687Z,5.59
2022-12-27T12:28:56.296Z,5.64
2022-12-27T12:31:35.158Z,5.61
2022-12-27T12:34:28.572Z,5.63
2022-12-27T12:37:16.647Z,5.57
2022-12-27T12:40:05.752Z,5.58
2022-12-27T12:42:54.603Z,5.55
2022-12-27T12:45:50.524Z,5.50
2022-12-27T12:48:45.503Z,5.37
2022-12-27T12:51:44.415Z,5.33
2022-12-27T12:54:38.821Z,5.41
2022-12-27T12:57:26.462Z,5.43
2022-12-27T13:00:20.244Z,5.44
2022-12-27T13:03:33.926Z,5.53
2022-12-27T13:06:20.574Z,5.53
2022-12-27T13:09:05.019Z,5.56
2022-12-27T13:11:57.273Z,5.56
2022-12-27T13:14:51.397Z,5.51
2022-12-27T13:17:30.273Z,5.50
2022-12-27T13:20:14.443Z,5.49
2022-12-27T13:22:59.832Z,5.49
2022-12-27T13:25:39.925Z,5.48
2022-12-27T13:28:37.622Z,5.43
2022-12-27T13:31:21.123Z,5.33
2022-12-27T13:34:08.705Z,5.34
2022-12-27T13:36:52.732Z,5.30
2022-12-27T13:39:42.054Z,5.31
2022-12-27T13:42:48.206Z,5.28
2022-12-27T13:45:40.908Z,5.20
2022-12-27T13:48:40.962Z,5.16
2022-12-27T13:51:43.003Z,5.18
2022-12-27T13:54:46.864Z,5.09
2022-12-27T13:57:45.929Z,5.04
2022-12-27T14:00:21.553Z,5.12
2022-12-27T14:03:25.049Z,5.13
2022-12-27T14:06:32.975Z,5.09
2022-12-27T14:09:50.565Z,5.13
2022-12-27T14:12:51.404Z,5.09
2022-12-27T14:15:30.603Z,5.19
2022-12-27T14:18:22.232Z,5.17
2022-12-27T14:21:13.383Z,5.16
2022-12-27T14:24:00.474Z,5.03
2022-12-27T14:27:07.594Z,5.07
2022-12-27T14:30:22.672Z,5.04
2022-12-27T14:33:10.970Z,5.00
2022-12-27T14:36:11.853Z,4.93
2022-12-27T14:39:09.882Z,4.95
2022-12-27T14:42:07.154Z,4.92
2022-12-27T14:45:14.867Z,4.92
2022-12-27T14:48:12.849Z,4.87
2022-12-27T14:51:58.897Z,4.86
2022-12-27T14:55:02.422Z,4.81
2022-12-27T14:57:44.971Z,4.74
2022-12-27T15:00:26.980Z,4.81
2022-12-27T15:03:29.616Z,4.80
2022-12-27T15:06:17.693Z,4.83
2022-12-27T15:09:03.887Z,4.84
2022-12-27T15:11:58.713Z,4.78
2022-12-27T15:14:58.731Z,4.86
2022-12-27T15:17:53.121Z,4.84
2022-12-27T15:20:44.074Z,4.78
2022-12-27T15:23:30.355Z,4.77
2022-12-27T15:26:22.820Z,4.77
2022-12-27T15:29:18.594Z,4.72
2022-12-27T15:32:01.684Z,4.69
2022-12-27T15:34:56.864Z,4.69
2022-12-27T15:37:56.311Z,4.67
2022-12-27T15:41:01.087Z,4.68
2022-12-27T15:44:21.981Z,4.71
2022-12-27T15:47:24.781Z,4.56
2022-12-27T15:50:18.160Z,4.53
2022-12-27T15:53:09.812Z,4.52
2022-12-27T15:56:19.792Z,4.46
2022-12-27T15:59:43.082Z,4.47
2022-12-27T16:02:38.544Z,4.36
2022-12-27T16:05:38.935Z,4.30
2022-12-27T16:08:30.344Z,4.36
2022-12-27T16:11:05.644Z,4.42
2022-12-27T16:14:13.877Z,4.44
2022-12-27T16:17:00.701Z,4.43
2022-12-27T16:20:05.445Z,4.36
2022-12-27T16:22:44.411Z,4.29
2022-12-27T16:25:37.563Z,4.28
2022-12-27T16:28:20.892Z,4.23
2022-12-27T16:30:59.233Z,4.19
2022-12-27T16:33:39.675Z,4.17
2022-12-27T16:36:22.841Z,4.16
2022-12-27T16:39:23.263Z,4.16
2022-12-27T16:42:14.434Z,4.07
2022-12-27T16:45:09.869Z,4.04
2022-12-27T16:48:01.652Z,4.00
2022-12-27T16:50:45.333Z,4.04
2022-12-27T16:53:50.999Z,3.95
2022-12-27T16:56:29.769Z,3.92
2022-12-27T16:59:02.471Z,3.92
2022-12-27T17:02:03.012Z,3.84
2022-12-27T17:04:58.624Z,3.81
2022-12-27T17:07:50.951Z,3.75
2022-12-27T17:11:06.596Z,3.72
2022-12-27T17:13:46.645Z,3.69
2022-12-27T17:16:23.526Z,3.71
2022-12-27T17:19:01.645Z,3.72
2022-12-27T17:21:36.430Z,3.78
2022-12-27T17:24:14.353Z,3.76
2022-12-27T17:27:11.524Z,3.82
2022-12-27T17:30:16.772Z,3.72
2022-12-27T17:33:18.442Z,3.70
2022-12-27T17:36:16.809Z,3.71
2022-12-27T17:39:05.713Z,3.65
2022-12-27T17:42:06.295Z,3.71
2022-12-27T17:44:56.523Z,3.73
2022-12-27T17:47:57.216Z,3.76
2022-12-27T17:50:31.052Z,3.80
2022-12-27T17:53:37.732Z,3.77
2022-12-27T17:56:42.569Z,3.78
2022-12-27T17:59:26.349Z,3.75
2022-12-27T18:02:02.825Z,3.70
2022-12-27T18:04:39.969Z,3.71
2022-12-27T18:07:16.947Z,3.70
2022-12-27T18:09:52.949Z,3.71
2022-12-27T18:12:31.003Z,3.73
2022-12-27T18:15:06.686Z,3.71
2022-12-27T18:17:46.970Z,3.63
2022-12-27T18:20:36.413Z,3.66
2022-12-27T18:23:21.394Z,3.61
2022-12-27T18:26:07.887Z,3.58
2022-12-27T18:28:44.505Z,3.60
2022-12-27T18:31:24.311Z,3.58
2022-12-27T18:34:07.913Z,3.53
2022-12-27T18:36:46.197Z,3.54
2022-12-27T18:39:30.151Z,3.56
2022-12-27T18:42:02.304Z,3.58
2022-12-27T18:44:41.431Z,3.54
2022-12-27T18:47:24.550Z,3.59
2022-12-27T18:50:02.806Z,3.59
2022-12-27T18:52:43.099Z,3.57
2022-12-27T18:55:29.394Z,3.53
2022-12-27T18:58:09.977Z,3.52
2022-12-27T19:00:55.040Z,3.44
2022-12-27T19:03:28.884Z,3.42
2022-12-27T19:06:10.994Z,3.46
2022-12-27T19:08:55.702Z,3.50
2022-12-27T19:11:36.524Z,3.49
2022-12-27T19:14:22.487Z,3.45
2022-12-27T19:17:10.430Z,3.44
2022-12-27T19:19:58.564Z,3.42
2022-12-27T19:22:52.897Z,3.39
2022-12-27T19:25:31.730Z,3.37
2022-12-27T19:28:28.512Z,3.37
2022-12-27T19:31:23.328Z,3.37
2022-12-27T19:34:03.501Z,3.34
2022-12-27T19:36:47.823Z,3.26
2022-12-27T19:39:37.713Z,3.31
2022-12-27T19:42:35.442Z,3.34
2022-12-27T19:45:21.202Z,3.32
2022-12-27T19:48:00.543Z,3.39
2022-12-27T19:50:37.242Z,3.40
2022-12-27T19:53:16.707Z,3.43
2022-12-27T19:55:54.037Z,3.42
2022-12-27T19:58:37.037Z,3.40
2022-12-27T20:01:17.657Z,3.39
2022-12-27T20:04:02.100Z,3.35
2022-12-27T20:06:38.972Z,3.36
2022-12-27T20:09:29.562Z,3.35
2022-12-27T20:12:08.978Z,3.34
2022-12-27T20:14:46.773Z,3.35
2022-12-27T20:17:26.672Z,3.32
2022-12-27T20:20:04.560Z,3.20
2022-12-27T20:22:40.622Z,3.10
2022-12-27T20:25:17.504Z,3.06
2022-12-27T20:27:50.321Z,3.08
2022-12-27T20:30:23.496Z,3.12
2022-12-27T20:32:57.064Z,3.11
2022-12-27T20:35:31.459Z,3.08
2022-12-27T20:38:04.414Z,3.10
2022-12-27T20:40:39.969Z,3.06
2022-12-27T20:43:18.201Z,3.10
2022-12-27T20:46:01.139Z,2.99
2022-12-27T20:48:39.513Z,2.99
2022-12-27T20:51:16.401Z,2.97
2022-12-27T20:53:55.191Z,2.95
2022-12-27T20:56:29.000Z,2.95
2022-12-27T20:59:03.881Z,2.93
2022-12-27T21:01:37.007Z,2.89
2022-12-27T21:04:13.652Z,2.87
2022-12-27T21:06:49.743Z,2.81
2022-12-27T21:09:22.824Z,2.72
2022-12-27T21:11:56.268Z,2.73
2022-12-27T21:14:29.052Z,2.68
2022-12-27T21:17:01.848Z,2.72
2022-12-27T21:19:34.727Z,2.72
2022-12-27T21:22:07.146Z,2.69
2022-12-27T21:24:41.893Z,2.67
2022-12-27T21:27:16.163Z,2.72
2022-12-27T21:29:48.772Z,2.72
2022-12-27T21:32:21.266Z,2.78
2022-12-27T21:34:54.173Z,2.78
2022-12-27T21:37:27.044Z,2.84
2022-12-27T21:39:59.932Z,2.94
2022-12-27T21:42:32.549Z,2.96
2022-12-27T21:45:05.433Z,2.98
2022-12-27T21:47:38.324Z,2.92
2022-12-27T21:50:11.880Z,2.91
2022-12-27T21:52:44.199Z,2.92
2022-12-27T21:55:16.742Z,2.86
2022-12-27T21:57:49.567Z,2.91
2022-12-27T22:00:22.223Z,2.90
2022-12-27T22:02:55.282Z,2.85
2022-12-27T22:05:28.673Z,2.82
2022-12-27T22:08:01.533Z,2.76
2022-12-27T22:10:35.826Z,2.74
2022-12-27T22:13:08.466Z,2.79
2022-12-27T22:15:41.379Z,2.78
2022-12-27T22:18:13.893Z,2.79
2022-12-27T22:20:47.132Z,2.81
2022-12-27T22:23:20.208Z,2.89
2022-12-27T22:25:54.525Z,2.94
2022-12-27T22:28:28.478Z,2.87
2022-12-27T22:31:06.168Z,2.88
2022-12-27T22:33:39.411Z,2.89
2022-12-27T22:36:15.282Z,2.91
2022-12-27T22:38:49.888Z,2.95
2022-12-27T22:41:26.200Z,2.98
2022-12-27T22:44:00.292Z,2.98
2022-12-27T22:49:26.430Z,2.98
2022-12-27T22:51:58.940Z,2.99
2022-12-27T22:55:04.296Z,3.03
2022-12-27T22:57:24.819Z,3.07
2022-12-27T22:59:57.503Z,3.13
2022-12-27T23:02:30.372Z,3.15
2022-12-27T23:05:03.148Z,3.18
2022-12-27T23:08:03.281Z,3.23
2022-12-27T23:10:28.796Z,3.21
2022-12-27T23:13:01.766Z,3.17
2022-12-27T23:15:34.317Z,3.17
2022-12-27T23:18:07.131Z,3.11
2022-12-27T23:21:21.312Z,3.07
2022-12-27T23:23:32.507Z,3.05
2022-12-27T23:26:09.352Z,3.06
2022-12-27T23:28:43.452Z,3.12
2022-12-27T23:31:16.658Z,3.16
2022-12-27T23:33:49.423Z,3.12
2022-12-27T23:36:22.312Z,3.04
2022-12-27T23:38:55.714Z,2.99
2022-12-27T23:41:28.787Z,3.00
2022-12-27T23:44:03.175Z,2.96
2022-12-27T23:46:36.495Z,2.92
2022-12-27T23:49:10.102Z,2.87
2022-12-27T23:51:42.723Z,2.88
2022-12-27T23:54:15.302Z,2.87
2022-12-27T23:56:47.756Z,2.85
2022-12-27T23:59:20.295Z,2.80
